Terminal Aerodrome Forecast
Issued by NWS

Home | Current Version | Previous Version | Text Only | Print | Product List | Glossary On
Versions: 1 2 3 4 5 6 7 8 9 10 11 12 13 14 15 16 17 18 19 20 21 22 23
410
FTUS43 KGRR 180650 AAA
TAFAZO
TAF AMD
KAZO 180650Z 1807/1906 27012G18KT P6SM BKN050
     FM181100 26010G16KT P6SM VCSH OVC020
     FM181600 28013G20KT P6SM OVC019
     FM181900 29013G20KT P6SM OVC035
     FM190000 29007KT P6SM BKN050=

USA.gov is the U.S. government's official web portal to all federal, state and local government web resources and services.